aviador You're here:

KBKB Decoded Metar

FULLERTON/POLK in LA, USA
Report Time2017-07-21 03:54:00
UTC Time2017-07-21 04:36:24
Flight Rules vfr VFR
WindCalm
Visibility9999 m
Phenomena:N/A
Clouds:N/A
Expected CloudBase > 1,200 ft AGL from Temp-Dew spread
CeilingNone
Temp27°C (ISA +13)
Dew Point24°C (84% RH)
Heat Index30.1°C
QNH1016 hPa
Density Alt2,054 ft
Elevation308 ft
Report Wrong Elevation
Raw Report
KBKB 210354Z AUTO 00000KT 10SM CLR 27/24 A3001 RMK AO2 SLP188
T02720244=

Extra information for KBKB:More info

Metar Taf Metar & Taf Last 4 Metars F.Rules Stats Wind Profile Meteogram Temp Stats Airport Information Weather charts Add Link Nearby VenuesMetar ALERT Operation Metar Decoded Social comments

AIRNAV info for KBKB